Time;durP1;ratioP1;P1;durP2;ratioP2;P2;SDS_P1;SDS_P2;PMS_P1;PMS_P2;Temp;Humidity;BMP_temperature;BMP_pressure;BME280_temperature;BME280_humidity;BME280_pressure;Samples;Min_cycle;Max_cycle;Signal;HPM_P1;HPM_P2
2023/01/13 00:02:23;;;;;;;;;;;;;;;6.28;100.00;99125.75;5053185;28;20286;-86
2023/01/13 00:04:48;;;;;;;;;;;;;;;6.22;100.00;99118.06;5035328;28;19970;-86
2023/01/13 00:07:13;;;;;;;;;;;;;;;6.24;100.00;99118.88;5052393;28;20299;-85
2023/01/13 00:09:39;;;;;;;;;;;;;;;6.19;100.00;99116.44;5034272;28;19948;-87
2023/01/13 00:12:05;;;;;;;;;;;;;;;6.18;100.00;99101.56;5035302;28;20295;-86
2023/01/13 00:14:32;;;;;;;;;;;;;;;6.10;100.00;99104.44;5039915;28;19917;-86
2023/01/13 00:16:57;;;;;;;;;;;;;;;6.09;100.00;99101.88;5033239;28;19917;-85
2023/01/13 00:19:23;;;;;;;;;;;;;;;6.06;100.00;99094.09;5015305;28;19923;-86
2023/01/13 00:21:48;;;;;;;;;;;;;;;6.01;100.00;99096.88;5014278;28;19921;-85
2023/01/13 09:21:12;;;;;;;;;;;;;;;8.44;100.00;99234.19;5026662;28;19932;-89
2023/01/13 09:23:39;;;;;;;;;;;;;;;7.74;100.00;99241.44;5018659;28;19925;-90
2023/01/13 09:26:05;;;;;;;;;;;;;;;7.09;100.00;99233.34;5017369;28;19917;-91
2023/01/13 09:28:31;;;;;;;;;;;;;;;6.91;100.00;99234.06;5015511;28;19918;-86
2023/01/13 09:30:59;;;;;;;;;;;;;;;6.75;100.00;99243.41;5017736;28;19914;-88
2023/01/13 09:36:08;;;;;;;;;;;;;;;6.62;100.00;99249.13;5017331;28;19987;-87
2023/01/13 09:38:33;;;;;;;;;;;;;;;6.57;100.00;99232.59;5016406;28;19921;-87
2023/01/13 09:40:59;;;;;;;;;;;;;;;6.46;100.00;99251.44;5015945;28;19917;-86
2023/01/13 09:49:08;;;;;;;;;;;;;;;6.23;100.00;99262.72;5031155;28;20387;-91
2023/01/13 09:51:37;;;;;;;;;;;;;;;6.24;100.00;99259.19;5030390;28;19924;-90
2023/01/13 09:54:09;;;;;;;;;;;;;;;6.18;100.00;99259.41;5021851;28;19967;-92
2023/01/13 09:56:34;;;;;;;;;;;;;;;6.13;100.00;99267.44;5028911;28;19949;-90
2023/01/13 09:59:00;;;;;;;;;;;;;;;6.09;100.00;99255.28;5022784;28;19928;-87
2023/01/13 10:01:31;;;;;;;;;;;;;;;6.05;100.00;99268.59;5017421;28;19984;-85
2023/01/13 10:04:01;;;;;;;;;;;;;;;6.11;100.00;99260.50;5036325;28;19921;-90
2023/01/13 10:06:33;;;;;;;;;;;;;;;6.05;100.00;99279.97;5032614;28;19917;-88
2023/01/13 10:08:59;;;;;;;;;;;;;;;5.96;100.00;99286.38;5037862;28;20034;-88
2023/01/13 10:14:15;;;;;;;;;;;;;;;5.83;100.00;99285.03;5035448;28;19984;-88
2023/01/13 10:16:48;;;;;;;;;;;;;;;5.85;100.00;99293.72;5034497;28;19921;-86
2023/01/13 10:19:14;;;;;;;;;;;;;;;5.75;100.00;99303.66;5026473;28;19932;-88
2023/01/13 10:21:45;;;;;;;;;;;;;;;5.79;100.00;99293.91;5026816;28;19921;-85
2023/01/13 10:24:29;;;;;;;;;;;;;;;5.70;100.00;99289.81;5023899;28;19928;-86
2023/01/13 10:27:06;;;;;;;;;;;;;;;5.77;100.00;99295.72;5012722;28;19978;-88
2023/01/13 10:29:31;;;;;;;;;;;;;;;5.77;100.00;99291.31;4999882;28;19961;-88
2023/01/13 10:31:59;;;;;;;;;;;;;;;5.72;100.00;99289.75;5031663;28;19957;-87
2023/01/13 10:34:25;;;;;;;;;;;;;;;5.61;100.00;99290.09;5022893;28;20384;-85
2023/01/13 10:37:07;;;;;;;;;;;;;;;5.63;100.00;99293.53;5018192;28;19928;-86
2023/01/13 10:39:40;;;;;;;;;;;;;;;5.57;100.00;99285.84;5012739;28;19918;-86
2023/01/13 10:42:06;;;;;;;;;;;;;;;5.56;100.00;99290.22;5000142;28;19952;-89
2023/01/13 10:44:44;;;;;;;;;;;;;;;5.54;100.00;99292.03;5029960;28;19921;-89
2023/01/13 10:47:17;;;;;;;;;;;;;;;5.57;100.00;99297.22;5030834;28;20111;-86
2023/01/13 10:49:42;;;;;;;;;;;;;;;5.61;100.00;99309.34;5032101;28;19924;-86
2023/01/13 10:52:24;;;;;;;;;;;;;;;5.57;100.00;99320.88;5031921;28;19921;-87
2023/01/13 10:54:50;;;;;;;;;;;;;;;5.49;100.00;99330.75;5021294;28;19921;-85
2023/01/13 10:57:23;;;;;;;;;;;;;;;5.53;100.00;99331.50;5004708;28;19936;-90
2023/01/13 10:59:49;;;;;;;;;;;;;;;5.50;100.00;99335.06;4998267;28;19964;-85
2023/01/13 11:02:17;;;;;;;;;;;;;;;5.49;100.00;99332.50;5031425;28;19921;-85
2023/01/13 11:04:56;;;;;;;;;;;;;;;5.48;100.00;99342.16;5028111;28;19921;-87
2023/01/13 11:07:34;;;;;;;;;;;;;;;5.43;100.00;99338.81;5008817;28;20442;-85
2023/01/13 11:10:02;;;;;;;;;;;;;;;5.42;100.00;99348.44;5030903;28;19928;-85
2023/01/13 11:12:31;;;;;;;;;;;;;;;5.41;100.00;99343.25;5019285;28;19922;-88
2023/01/13 11:14:59;;;;;;;;;;;;;;;5.41;100.00;99335.38;5015066;28;19917;-90
2023/01/13 11:17:30;;;;;;;;;;;;;;;5.34;100.00;99337.28;5017689;28;19936;-87
2023/01/13 11:20:15;;;;;;;;;;;;;;;5.30;100.00;99332.16;5011245;28;20384;-93
2023/01/13 11:22:46;;;;;;;;;;;;;;;5.36;100.00;99332.00;5021528;28;20380;-87
2023/01/13 11:25:19;;;;;;;;;;;;;;;5.26;100.00;99334.91;5013746;28;19924;-93
2023/01/13 11:27:51;;;;;;;;;;;;;;;5.18;100.00;99342.13;5014817;28;20020;-92
2023/01/13 11:30:21;;;;;;;;;;;;;;;5.24;100.00;99344.56;5016824;28;19967;-94
2023/01/13 11:33:06;;;;;;;;;;;;;;;5.21;100.00;99347.28;5020006;28;20288;-90
2023/01/13 11:35:33;;;;;;;;;;;;;;;5.24;100.00;99341.09;5013209;28;19953;-87
2023/01/13 11:38:28;;;;;;;;;;;;;;;5.18;100.00;99339.50;5008707;28;19925;-87
2023/01/13 11:40:56;;;;;;;;;;;;;;;5.11;100.00;99345.84;4967049;28;20480;-87
2023/01/13 11:43:30;;;;;;;;;;;;;;;5.13;100.00;99336.13;5005945;28;19917;-86
2023/01/13 11:45:57;;;;;;;;;;;;;;;5.15;100.00;99342.19;5012689;28;19971;-84
2023/01/13 11:48:25;;;;;;;;;;;;;;;5.21;100.00;99343.81;4998132;28;19918;-87
2023/01/13 11:51:09;;;;;;;;;;;;;;;5.74;100.00;99336.13;5021061;28;20016;-87
2023/01/13 11:53:34;;;;;;;;;;;;;;;6.10;100.00;99335.06;5017942;28;20008;-85
2023/01/13 11:56:03;;;;;;;;;;;;;;;6.26;100.00;99331.03;5026516;28;20040;-86
2023/01/13 11:58:41;;;;;;;;;;;;;;;6.43;100.00;99326.97;5032841;28;19923;-91
2023/01/13 12:01:18;;;;;;;;;;;;;;;6.55;100.00;99327.44;5032952;28;19920;-94
2023/01/13 12:03:49;;;;;;;;;;;;;;;6.71;100.00;99322.50;5027911;28;20438;-92
2023/01/13 12:06:33;;;;;;;;;;;;;;;6.80;100.00;99313.44;4996949;28;19928;-93
2023/01/13 12:09:10;;;;;;;;;;;;;;;6.83;100.00;99321.25;5012635;28;20011;-89
2023/01/13 12:14:35;;;;;;;;;;;;;;;6.97;100.00;99320.72;5034375;28;20018;-93
2023/01/13 12:17:05;;;;;;;;;;;;;;;7.05;100.00;99299.38;5025216;28;20067;-88
2023/01/13 12:19:31;;;;;;;;;;;;;;;7.09;100.00;99308.91;5015451;28;19927;-94
2023/01/13 12:22:08;;;;;;;;;;;;;;;7.13;100.00;99312.28;5033323;28;20019;-90
2023/01/13 12:24:40;;;;;;;;;;;;;;;7.23;100.00;99319.81;5019308;28;20001;-96
2023/01/13 12:27:25;;;;;;;;;;;;;;;7.30;100.00;99336.25;5028188;28;20368;-92
2023/01/13 12:29:54;;;;;;;;;;;;;;;7.32;100.00;99334.41;5019712;28;19971;-91
2023/01/13 12:32:23;;;;;;;;;;;;;;;7.37;100.00;99348.31;5033659;28;19917;-87
2023/01/13 12:35:01;;;;;;;;;;;;;;;7.40;100.00;99348.19;5028936;28;20292;-90
2023/01/13 12:37:41;;;;;;;;;;;;;;;7.49;100.00;99343.50;5030217;28;19917;-91
2023/01/13 12:40:09;;;;;;;;;;;;;;;7.48;100.00;99344.41;5021425;28;19972;-90
2023/01/13 12:45:38;;;;;;;;;;;;;;;7.50;100.00;99342.56;5018033;28;19948;-91
2023/01/13 12:48:03;;;;;;;;;;;;;;;7.50;100.00;99346.06;5030998;28;20678;-94
2023/01/13 12:50:29;;;;;;;;;;;;;;;7.56;100.00;99337.06;5036840;28;19915;-88
2023/01/13 12:53:19;;;;;;;;;;;;;;;7.54;100.00;99336.25;5025313;28;20292;-93
2023/01/13 12:55:49;;;;;;;;;;;;;;;7.57;100.00;99338.78;5015034;28;19921;-89
2023/01/13 12:58:15;;;;;;;;;;;;;;;7.59;100.00;99342.22;5000228;28;19937;-87
2023/01/13 13:00:41;;;;;;;;;;;;;;;7.65;100.00;99336.72;5032903;28;19917;-88
2023/01/13 13:03:06;;;;;;;;;;;;;;;7.67;100.00;99345.41;5031875;28;19975;-89
2023/01/13 13:05:37;;;;;;;;;;;;;;;7.71;100.00;99336.47;5032737;28;19917;-91
2023/01/13 13:08:05;;;;;;;;;;;;;;;7.70;100.00;99340.03;5032828;28;19976;-88
2023/01/13 13:10:33;;;;;;;;;;;;;;;7.71;100.00;99352.31;5013149;28;20012;-90
2023/01/13 13:15:44;;;;;;;;;;;;;;;7.76;100.00;99366.16;5014651;28;19927;-91
2023/01/13 13:18:15;;;;;;;;;;;;;;;7.75;100.00;99353.03;4997821;28;19921;-90
2023/01/13 13:20:53;;;;;;;;;;;;;;;7.76;100.00;99349.50;5015510;28;19922;-88
2023/01/13 13:23:46;;;;;;;;;;;;;;;7.80;100.00;99351.97;5020097;28;19921;-90
2023/01/13 13:26:22;;;;;;;;;;;;;;;7.81;100.00;99348.38;5002021;28;20027;-88
2023/01/13 13:28:54;;;;;;;;;;;;;;;7.82;100.00;99350.13;5034252;28;19969;-92
2023/01/13 13:31:36;;;;;;;;;;;;;;;7.82;100.00;99354.53;5035429;28;20414;-86
2023/01/13 13:34:10;;;;;;;;;;;;;;;7.85;100.00;99361.47;5032101;28;19925;-91
2023/01/13 13:36:47;;;;;;;;;;;;;;;7.86;100.00;99371.09;5021531;28;20008;-90
2023/01/13 13:47:42;;;;;;;;;;;;;;;7.93;100.00;99384.00;5016944;28;19923;-92
2023/01/13 13:50:11;;;;;;;;;;;;;;;7.94;100.00;99374.31;5015635;28;20499;-89
2023/01/13 13:52:39;;;;;;;;;;;;;;;7.91;100.00;99384.97;5015912;28;19964;-90
2023/01/13 13:55:08;;;;;;;;;;;;;;;7.95;100.00;99391.84;4998524;28;19917;-90
2023/01/13 13:57:35;;;;;;;;;;;;;;;7.98;100.00;99392.59;5016000;28;20262;-90
2023/01/13 14:00:05;;;;;;;;;;;;;;;8.00;100.00;99387.25;5020724;28;20328;-88
2023/01/13 14:02:33;;;;;;;;;;;;;;;8.02;100.00;99381.94;5034546;28;20008;-88
2023/01/13 14:05:13;;;;;;;;;;;;;;;8.02;100.00;99376.66;5020769;28;19925;-94
2023/01/13 14:07:43;;;;;;;;;;;;;;;8.06;100.00;99381.75;5018463;28;19922;-92
2023/01/13 14:10:14;;;;;;;;;;;;;;;8.09;100.00;99386.91;5016453;28;19921;-93
2023/01/13 14:12:40;;;;;;;;;;;;;;;8.12;100.00;99392.06;5018114;28;19988;-86
2023/01/13 14:15:21;;;;;;;;;;;;;;;8.13;100.00;99399.03;5006433;28;19925;-88
2023/01/13 14:17:46;;;;;;;;;;;;;;;8.14;100.00;99408.69;5033804;28;19924;-90
2023/01/13 14:20:26;;;;;;;;;;;;;;;8.15;100.00;99410.44;5032282;28;19921;-89
2023/01/13 14:22:52;;;;;;;;;;;;;;;8.19;100.00;99427.00;5022209;28;19929;-91
2023/01/13 14:25:28;;;;;;;;;;;;;;;8.18;100.00;99412.06;4998597;28;19917;-90
2023/01/13 14:27:54;;;;;;;;;;;;;;;8.18;100.00;99415.59;4997484;28;20344;-88
2023/01/13 14:30:21;;;;;;;;;;;;;;;8.23;100.00;99417.16;5014919;28;19917;-88
2023/01/13 14:32:47;;;;;;;;;;;;;;;8.23;100.00;99411.88;4995844;28;19941;-88
2023/01/13 14:35:15;;;;;;;;;;;;;;;8.25;100.00;99417.97;5008488;28;20361;-94
2023/01/13 14:37:41;;;;;;;;;;;;;;;8.23;100.00;99415.38;5018945;28;19960;-89
2023/01/13 14:40:26;;;;;;;;;;;;;;;8.24;100.00;99418.91;5035637;28;19924;-91
2023/01/13 14:43:01;;;;;;;;;;;;;;;8.24;100.00;99432.09;5035031;28;20047;-90
2023/01/13 14:45:26;;;;;;;;;;;;;;;8.25;100.00;99423.22;5017923;28;19921;-91
2023/01/13 14:47:53;;;;;;;;;;;;;;;8.26;100.00;99430.25;5014619;28;21546;-91
2023/01/13 14:50:22;;;;;;;;;;;;;;;8.26;100.00;99428.47;5036032;28;19921;-88
2023/01/13 14:52:53;;;;;;;;;;;;;;;8.30;100.00;99437.13;5033409;28;19956;-87
2023/01/13 14:55:18;;;;;;;;;;;;;;;8.31;100.00;99446.75;5033109;28;20360;-88
2023/01/13 14:57:45;;;;;;;;;;;;;;;8.32;100.00;99449.34;5034774;28;19928;-90
2023/01/13 15:00:14;;;;;;;;;;;;;;;8.33;100.00;99455.50;5019256;28;19921;-87
2023/01/13 15:02:42;;;;;;;;;;;;;;;8.37;100.00;99465.00;5014597;28;19944;-86
2023/01/13 15:05:23;;;;;;;;;;;;;;;8.42;100.00;99478.88;5013091;28;19960;-87
2023/01/13 15:07:50;;;;;;;;;;;;;;;8.41;100.00;99493.03;5017731;28;19968;-86
2023/01/13 15:10:19;;;;;;;;;;;;;;;8.43;100.00;99503.53;5001498;28;19920;-91
2023/01/13 15:12:44;;;;;;;;;;;;;;;8.42;100.00;99491.22;5034593;28;20376;-88
2023/01/13 15:15:48;;;;;;;;;;;;;;;8.42;100.00;99502.63;5034449;28;19924;-94
2023/01/13 15:18:16;;;;;;;;;;;;;;;8.47;100.00;99499.84;4933415;29;20115;-86
2023/01/13 15:20:41;;;;;;;;;;;;;;;8.46;100.00;99511.38;4935381;29;19922;-87
2023/01/13 15:23:07;;;;;;;;;;;;;;;8.09;100.00;99516.22;4975063;28;20288;-88
2023/01/13 15:25:36;;;;;;;;;;;;;;;7.28;100.00;99520.78;5041498;28;19924;-89
2023/01/13 15:28:02;;;;;;;;;;;;;;;6.95;100.00;99521.91;5016146;28;19956;-90
2023/01/13 15:30:27;;;;;;;;;;;;;;;6.74;100.00;99524.31;5017054;28;19920;-88
2023/01/13 15:32:54;;;;;;;;;;;;;;;6.59;100.00;99527.41;5035345;28;19917;-87
2023/01/13 15:35:21;;;;;;;;;;;;;;;6.46;100.00;99530.44;5036391;28;19921;-90
2023/01/13 15:37:47;;;;;;;;;;;;;;;6.42;100.00;99541.09;5035116;28;19917;-89
2023/01/13 15:40:12;;;;;;;;;;;;;;;6.31;100.00;99550.16;5034359;28;19917;-92
2023/01/13 15:48:06;;;;;;;;;;;;;;;6.06;100.00;99543.88;5019173;28;19929;-87
2023/01/13 15:50:32;;;;;;;;;;;;;;;6.09;100.00;99549.03;5021701;28;19921;-89
2023/01/13 15:52:57;;;;;;;;;;;;;;;5.98;100.00;99547.59;5026062;28;19944;-89
2023/01/13 15:55:22;;;;;;;;;;;;;;;5.98;100.00;99552.84;5029122;28;19920;-91
2023/01/13 15:57:49;;;;;;;;;;;;;;;5.96;100.00;99549.38;5028408;28;19925;-89
2023/01/13 16:00:16;;;;;;;;;;;;;;;5.86;100.00;99553.16;5027948;28;19921;-94
2023/01/13 16:02:43;;;;;;;;;;;;;;;5.88;100.00;99561.84;5030119;28;20008;-89
2023/01/13 16:05:08;;;;;;;;;;;;;;;5.85;100.00;99556.66;5029425;28;19943;-93
2023/01/13 16:07:34;;;;;;;;;;;;;;;5.85;100.00;99561.94;5035914;28;19982;-90
2023/01/13 16:10:03;;;;;;;;;;;;;;;5.80;100.00;99562.06;5035219;28;20414;-88
2023/01/13 16:12:31;;;;;;;;;;;;;;;5.74;100.00;99561.34;5031291;28;19917;-89
2023/01/13 16:14:56;;;;;;;;;;;;;;;5.76;100.00;99570.06;5025645;28;19922;-95
2023/01/13 16:17:23;;;;;;;;;;;;;;;5.69;100.00;99579.88;5022170;28;19928;-94
2023/01/13 16:19:51;;;;;;;;;;;;;;;5.66;100.00;99582.59;5022850;28;20058;-93
2023/01/13 16:22:16;;;;;;;;;;;;;;;5.65;100.00;99586.13;5027365;28;19922;-93
2023/01/13 16:24:42;;;;;;;;;;;;;;;5.53;100.00;99597.81;5016897;28;19920;-93
2023/01/13 16:27:16;;;;;;;;;;;;;;;5.59;100.00;99599.44;5035998;28;19921;-90
2023/01/13 16:29:41;;;;;;;;;;;;;;;5.55;100.00;99608.28;5036766;28;20007;-94
2023/01/13 16:32:09;;;;;;;;;;;;;;;5.49;100.00;99606.69;5035733;28;19958;-89
2023/01/13 16:34:35;;;;;;;;;;;;;;;5.45;100.00;99608.50;5030976;28;20369;-94
2023/01/13 16:37:00;;;;;;;;;;;;;;;5.50;100.00;99621.53;5013588;28;19917;-92
2023/01/13 16:39:26;;;;;;;;;;;;;;;5.45;100.00;99621.66;5016047;28;20368;-94
2023/01/13 16:41:51;;;;;;;;;;;;;;;5.42;100.00;99629.59;5036348;28;19917;-95
2023/01/13 16:44:16;;;;;;;;;;;;;;;5.43;100.00;99644.47;5038120;28;19923;-94
2023/01/13 16:46:44;;;;;;;;;;;;;;;5.32;100.00;99646.50;5033268;28;19917;-91
2023/01/13 16:49:10;;;;;;;;;;;;;;;5.34;100.00;99659.59;5030343;28;20401;-93
2023/01/13 16:51:36;;;;;;;;;;;;;;;5.28;100.00;99653.59;5037294;28;19917;-96
2023/01/13 16:57:14;;;;;;;;;;;;;;;5.28;100.00;99664.13;4967463;28;19919;-92
2023/01/13 16:59:41;;;;;;;;;;;;;;;5.30;100.00;99668.44;5042082;28;19928;-95
2023/01/13 17:02:11;;;;;;;;;;;;;;;5.32;100.00;99671.94;5040675;28;19924;-93
2023/01/13 17:04:40;;;;;;;;;;;;;;;5.26;100.00;99673.81;5037788;28;19987;-95
2023/01/13 17:07:07;;;;;;;;;;;;;;;5.24;100.00;99680.84;5036843;28;19924;-93
2023/01/13 17:09:32;;;;;;;;;;;;;;;5.20;100.00;99694.94;5036330;28;19921;-91
2023/01/13 17:11:57;;;;;;;;;;;;;;;5.21;100.00;99709.78;5041293;28;19929;-92
2023/01/13 17:14:23;;;;;;;;;;;;;;;5.18;100.00;99706.38;5040250;28;19940;-94
2023/01/13 17:16:50;;;;;;;;;;;;;;;5.15;100.00;99685.44;5040616;28;19924;-93
2023/01/13 17:19:15;;;;;;;;;;;;;;;5.08;100.00;99682.94;5034655;28;19917;-93
2023/01/13 17:21:54;;;;;;;;;;;;;;;5.07;100.00;99696.09;5040318;28;19928;-95
2023/01/13 17:24:24;;;;;;;;;;;;;;;5.08;100.00;99709.19;5039057;28;19924;-91
2023/01/13 17:26:49;;;;;;;;;;;;;;;5.61;100.00;99714.13;5035284;28;19975;-90
2023/01/13 17:29:16;;;;;;;;;;;;;;;6.00;100.00;99708.00;5034025;28;19924;-89
2023/01/13 17:31:42;;;;;;;;;;;;;;;6.20;100.00;99711.88;5035964;28;19917;-94
2023/01/13 17:34:08;;;;;;;;;;;;;;;6.36;100.00;99721.94;5035229;28;20371;-92
2023/01/13 17:36:33;;;;;;;;;;;;;;;6.47;100.00;99718.16;5034281;28;19971;-90
2023/01/13 17:38:59;;;;;;;;;;;;;;;6.58;100.00;99720.50;5036186;28;19917;-90
2023/01/13 17:41:29;;;;;;;;;;;;;;;6.65;100.00;99715.03;5035491;28;19927;-89
2023/01/13 17:43:55;;;;;;;;;;;;;;;6.75;100.00;99722.66;5033872;28;19923;-87
2023/01/13 17:46:21;;;;;;;;;;;;;;;6.84;100.00;99727.66;5035184;28;20008;-87
2023/01/13 17:48:47;;;;;;;;;;;;;;;6.87;100.00;99724.94;5034344;28;19924;-89
2023/01/13 17:51:13;;;;;;;;;;;;;;;6.93;100.00;99727.41;5035044;28;19917;-90
2023/01/13 17:53:39;;;;;;;;;;;;;;;6.97;100.00;99729.03;5034963;28;19924;-87
2023/01/13 17:56:05;;;;;;;;;;;;;;;7.01;100.00;99728.06;5034955;28;19921;-89
2023/01/13 17:58:31;;;;;;;;;;;;;;;7.03;100.00;99731.50;5035133;28;19917;-90
2023/01/13 18:00:56;;;;;;;;;;;;;;;7.09;100.00;99727.84;5035785;28;19924;-89
2023/01/13 18:06:24;;;;;;;;;;;;;;;7.17;100.00;99735.50;5296373;23;19933;-88
2023/01/13 18:08:50;;;;;;;;;;;;;;;7.17;100.00;99736.38;5017493;28;20296;-92
2023/01/13 18:11:17;;;;;;;;;;;;;;;7.21;100.00;99738.00;5035325;28;20080;-91
2023/01/13 18:13:43;;;;;;;;;;;;;;;7.22;100.00;99734.44;5034725;28;19917;-88
2023/01/13 18:16:12;;;;;;;;;;;;;;;7.27;100.00;99742.22;5034637;28;20269;-90
2023/01/13 18:18:41;;;;;;;;;;;;;;;7.32;100.00;99747.34;5034405;28;19924;-93
2023/01/13 18:27:27;;;;;;;;;;;;;;;7.37;100.00;99759.50;5055727;28;19924;-91
2023/01/13 18:33:24;;;;;;;;;;;;;;;7.47;100.00;99775.91;5038648;28;19959;-93
2023/01/13 18:35:49;;;;;;;;;;;;;;;7.49;100.00;99778.50;4993596;28;19987;-94
2023/01/13 18:38:21;;;;;;;;;;;;;;;7.51;100.00;99787.22;4995073;28;20353;-94
2023/01/13 18:40:46;;;;;;;;;;;;;;;7.55;100.00;99792.34;5017704;28;19920;-91
2023/01/13 18:43:12;;;;;;;;;;;;;;;7.57;100.00;99787.88;5038937;28;20268;-93
2023/01/13 18:45:37;;;;;;;;;;;;;;;7.59;100.00;99785.19;5048899;28;20445;-92
2023/01/13 18:48:03;;;;;;;;;;;;;;;7.60;100.00;99786.94;5036703;28;19940;-91
2023/01/13 18:50:31;;;;;;;;;;;;;;;7.61;100.00;99780.72;5041796;28;19928;-89
2023/01/13 18:52:57;;;;;;;;;;;;;;;7.65;100.00;99782.38;5021507;28;19971;-88
2023/01/13 18:55:22;;;;;;;;;;;;;;;7.65;100.00;99785.03;5017846;28;20376;-92
2023/01/13 18:57:48;;;;;;;;;;;;;;;7.68;100.00;99784.06;5022005;28;19924;-91
2023/01/13 19:00:16;;;;;;;;;;;;;;;7.71;100.00;99794.53;5024287;28;19974;-94
2023/01/13 19:02:41;;;;;;;;;;;;;;;7.72;100.00;99790.97;5018529;28;19921;-91
2023/01/13 19:05:07;;;;;;;;;;;;;;;7.72;100.00;99801.50;5016792;28;19921;-94
2023/01/13 19:07:34;;;;;;;;;;;;;;;7.73;100.00;99806.75;5021632;28;19921;-93
2023/01/13 19:10:13;;;;;;;;;;;;;;;7.80;100.00;99810.94;5044938;28;19963;-93
2023/01/13 19:12:38;;;;;;;;;;;;;;;7.78;100.00;99810.09;5030344;28;19927;-95
2023/01/13 19:15:06;;;;;;;;;;;;;;;7.85;100.00;99817.81;5038495;28;19916;-91
2023/01/13 19:17:33;;;;;;;;;;;;;;;7.81;100.00;99827.59;5054865;28;19920;-87
2023/01/13 19:19:58;;;;;;;;;;;;;;;7.81;100.00;99823.19;5053379;28;19920;-90
2023/01/13 19:22:29;;;;;;;;;;;;;;;7.86;100.00;99838.03;5054295;28;19916;-93
2023/01/13 19:24:54;;;;;;;;;;;;;;;7.87;100.00;99835.34;5036284;28;19921;-92
2023/01/13 19:27:20;;;;;;;;;;;;;;;7.89;100.00;99846.69;5054800;28;19944;-89
2023/01/13 19:29:46;;;;;;;;;;;;;;;7.91;100.00;99850.16;5034032;28;19975;-87
2023/01/13 19:32:12;;;;;;;;;;;;;;;7.92;100.00;99856.31;5047496;28;19964;-89
2023/01/13 19:34:37;;;;;;;;;;;;;;;7.94;100.00;99854.47;5024603;28;20339;-88
2023/01/13 19:37:05;;;;;;;;;;;;;;;7.97;100.00;99857.88;5039260;28;19960;-90
2023/01/13 19:39:30;;;;;;;;;;;;;;;7.97;100.00;99854.38;5044156;28;20288;-88
2023/01/13 19:47:23;;;;;;;;;;;;;;;8.03;100.00;99862.13;5033072;28;19940;-87
2023/01/13 19:49:49;;;;;;;;;;;;;;;8.42;100.00;99868.81;5034901;28;20372;-95
2023/01/13 19:52:14;;;;;;;;;;;;;;;8.60;100.00;99872.63;5034335;28;20384;-90
2023/01/13 19:54:48;;;;;;;;;;;;;;;8.32;100.00;99876.16;5039387;28;19921;-92
2023/01/13 19:57:13;;;;;;;;;;;;;;;8.24;100.00;99889.59;5037573;28;20023;-89
2023/01/13 19:59:54;;;;;;;;;;;;;;;8.22;100.00;99890.56;5021923;28;19960;-92
2023/01/13 20:02:26;;;;;;;;;;;;;;;8.23;100.00;99894.94;5050947;28;19963;-89
2023/01/13 20:04:56;;;;;;;;;;;;;;;8.22;100.00;99888.78;5034237;28;20011;-91
2023/01/13 20:07:23;;;;;;;;;;;;;;;8.37;100.00;99895.34;5052477;28;19963;-88
2023/01/13 20:09:48;;;;;;;;;;;;;;;8.66;100.00;99891.81;5039279;28;19921;-90
2023/01/13 20:12:16;;;;;;;;;;;;;;;8.48;100.00;99895.91;5023907;28;19921;-90
2023/01/13 20:14:49;;;;;;;;;;;;;;;8.42;100.00;99888.13;5034271;28;20356;-91
2023/01/13 20:17:15;;;;;;;;;;;;;;;8.41;100.00;99891.72;5015400;28;19921;-94
2023/01/13 20:19:40;;;;;;;;;;;;;;;8.38;100.00;99891.81;5023866;28;20005;-88
2023/01/13 20:22:06;;;;;;;;;;;;;;;8.37;100.00;99890.06;5031415;28;20368;-91
2023/01/13 20:24:31;;;;;;;;;;;;;;;8.37;100.00;99900.63;5016665;28;19917;-90
2023/01/13 20:26:57;;;;;;;;;;;;;;;8.39;100.00;99893.53;5032859;28;19964;-95
2023/01/13 20:29:22;;;;;;;;;;;;;;;8.38;100.00;99897.09;5033770;28;19928;-89
2023/01/13 20:32:15;;;;;;;;;;;;;;;8.39;100.00;99908.50;5015605;28;20008;-93
2023/01/13 20:34:41;;;;;;;;;;;;;;;8.39;100.00;99908.50;5031924;28;19913;-89
2023/01/13 20:37:06;;;;;;;;;;;;;;;8.43;100.00;99916.31;5047984;28;19932;-93
2023/01/13 20:39:32;;;;;;;;;;;;;;;8.41;100.00;99907.56;5035592;28;19917;-90
2023/01/13 20:44:45;;;;;;;;;;;;;;;8.43;100.00;99905.75;5033958;28;19923;-91
2023/01/13 20:47:14;;;;;;;;;;;;;;;8.42;100.00;99909.25;5016456;28;19917;-93
2023/01/13 20:49:42;;;;;;;;;;;;;;;8.41;100.00;99922.50;5047955;28;20087;-93
2023/01/13 20:52:09;;;;;;;;;;;;;;;8.43;100.00;99920.72;5041283;28;19925;-89
2023/01/13 20:54:47;;;;;;;;;;;;;;;8.46;100.00;99921.50;5051048;28;19956;-92
2023/01/13 20:57:12;;;;;;;;;;;;;;;8.46;100.00;99915.38;5011096;28;19917;-89
2023/01/13 20:59:40;;;;;;;;;;;;;;;8.44;100.00;99917.16;5026739;28;19928;-92
2023/01/13 21:02:06;;;;;;;;;;;;;;;8.43;100.00;99913.69;5011058;28;19924;-90
2023/01/13 21:04:32;;;;;;;;;;;;;;;8.44;100.00;99922.44;5009383;28;19924;-91
2023/01/13 21:06:57;;;;;;;;;;;;;;;8.46;100.00;99918.00;5011931;28;20510;-89
2023/01/13 21:09:23;;;;;;;;;;;;;;;8.46;100.00;99921.50;5003216;28;19924;-90
2023/01/13 21:20:08;;;;;;;;;;;;;;;7.61;100.00;99936.31;5015657;28;19928;-86
2023/01/13 21:22:34;;;;;;;;;;;;;;;6.91;100.00;99940.81;5017722;28;19928;-90
2023/01/13 21:25:02;;;;;;;;;;;;;;;6.60;100.00;99948.59;5004808;28;19917;-93
2023/01/13 21:27:27;;;;;;;;;;;;;;;6.43;100.00;99958.66;5015012;28;19951;-90
2023/01/13 21:29:52;;;;;;;;;;;;;;;6.30;100.00;99963.34;5030160;28;19925;-90
2023/01/13 21:32:18;;;;;;;;;;;;;;;6.19;100.00;99953.09;5049250;28;19929;-92
2023/01/13 21:34:43;;;;;;;;;;;;;;;6.06;100.00;99955.09;5038297;28;19921;-93
2023/01/13 21:37:28;;;;;;;;;;;;;;;5.97;100.00;99945.66;5028057;28;19924;-92
2023/01/13 21:39:54;;;;;;;;;;;;;;;5.95;100.00;99954.41;5027871;28;19932;-90
2023/01/13 21:47:52;;;;;;;;;;;;;;;5.80;100.00;99963.50;5036777;28;20355;-88
2023/01/13 21:50:18;;;;;;;;;;;;;;;5.72;100.00;99971.53;5037167;28;19952;-87
2023/01/13 21:52:47;;;;;;;;;;;;;;;5.72;100.00;99970.69;5028416;28;19927;-93
2023/01/13 21:55:18;;;;;;;;;;;;;;;5.67;100.00;99978.66;5032180;28;20287;-90
2023/01/13 21:57:47;;;;;;;;;;;;;;;5.62;100.00;99983.16;5024490;28;19922;-93
2023/01/13 22:00:19;;;;;;;;;;;;;;;5.56;100.00;99986.75;5044314;28;19921;-92
2023/01/13 22:02:45;;;;;;;;;;;;;;;5.53;100.00;99992.06;5042182;28;19974;-94
2023/01/13 22:05:11;;;;;;;;;;;;;;;5.51;100.00;99988.63;5045131;28;19970;-93
2023/01/13 22:07:37;;;;;;;;;;;;;;;5.40;100.00;99990.56;5018592;28;19925;-87
2023/01/13 22:10:04;;;;;;;;;;;;;;;5.41;100.00;99997.56;5047100;28;20371;-91
2023/01/13 22:12:29;;;;;;;;;;;;;;;5.39;100.00;99997.59;5050396;28;19920;-89
2023/01/13 22:15:02;;;;;;;;;;;;;;;5.38;100.00;99998.50;5020767;28;19949;-89
2023/01/13 22:17:34;;;;;;;;;;;;;;;5.35;100.00;100001.16;5037401;28;19929;-93
2023/01/13 22:20:00;;;;;;;;;;;;;;;5.35;100.00;100006.44;5035345;28;19920;-93
2023/01/13 22:22:33;;;;;;;;;;;;;;;5.31;100.00;100010.00;5038602;28;19917;-90
2023/01/13 22:25:00;;;;;;;;;;;;;;;5.32;100.00;100014.34;5037556;28;19917;-89
2023/01/13 22:27:27;;;;;;;;;;;;;;;5.30;100.00;100008.28;5029327;28;20348;-91
2023/01/13 22:29:52;;;;;;;;;;;;;;;5.27;100.00;100014.44;5039149;28;20418;-87
2023/01/13 22:32:18;;;;;;;;;;;;;;;5.22;100.00;100008.41;5035230;28;19924;-88
2023/01/13 22:34:43;;;;;;;;;;;;;;;5.16;100.00;100012.91;5046288;28;19917;-87
2023/01/13 22:37:08;;;;;;;;;;;;;;;5.09;100.00;100013.00;5043494;28;19974;-93
2023/01/13 22:39:34;;;;;;;;;;;;;;;5.13;100.00;100013.81;5042128;28;19917;-91
2023/01/13 22:41:59;;;;;;;;;;;;;;;5.11;100.00;100015.59;5036006;28;19928;-88
2023/01/13 22:44:25;;;;;;;;;;;;;;;5.09;100.00;100014.78;5021051;28;19917;-89
2023/01/13 22:46:53;;;;;;;;;;;;;;;5.06;100.00;100007.81;5018195;28;20356;-90
2023/01/13 22:49:18;;;;;;;;;;;;;;;5.04;100.00;100009.59;5041721;28;20268;-85
2023/01/13 22:51:44;;;;;;;;;;;;;;;5.00;100.00;100013.16;5037476;28;19936;-88
2023/01/13 22:54:10;;;;;;;;;;;;;;;4.94;100.00;100022.88;5043385;28;19963;-95
2023/01/13 22:56:35;;;;;;;;;;;;;;;4.91;100.00;100019.44;5018549;28;20110;-92
2023/01/13 22:59:08;;;;;;;;;;;;;;;4.87;100.00;100022.97;5022124;28;19921;-87
2023/01/13 23:01:34;;;;;;;;;;;;;;;4.89;100.00;100020.34;5034513;28;19967;-89
2023/01/13 23:04:02;;;;;;;;;;;;;;;4.88;100.00;100014.22;5023453;28;20331;-91